Flight Track Log - Related Links

Times and Time Zones

All times are in EDT time to prevent confusion due to time zone crossing. See the KFS24 flight status page for this flight to view local times or setup timezone preferences in your user account.

Time Position Orientation Groundspeed Altitude Reporting Facility
EDT Latitude Longitude Course Direction KTS MPH feet Rate Location/Type
Fri 12:37:03 PM 37.3833 -121.9500 332° Northwest 197 227 1,300  Level Northern Cal TRACON
Fri 12:38:03 PM 37.4333 -121.9833 332° Northwest 216 249 3,600 1,850 Climbing Northern Cal TRACON
Fri 12:39:03 PM 37.4333 -121.9167 90° East 227 261 5,000 1,450 Climbing Northern Cal TRACON
Fri 12:40:03 PM 37.3833 -121.8667 142° Southeast 246 283 6,500 1,670 Climbing Northern Cal TRACON
Fri 12:40:58 PM 37.3264 -121.8233 149° Southeast 260 299 8,200 1,641 Climbing Oakland Center
Fri 12:42:00 PM 37.2661 -121.7747 147° Southeast 279 321 9,700 1,452 Climbing Oakland Center
Fri 12:43:02 PM 37.1983 -121.7128 144° Southeast 298 343 11,200 1,512 Climbing Oakland Center
Fri 12:44:03 PM 37.1258 -121.6478 144° Southeast 317 365 12,800 1,756 Climbing Oakland Center
Fri 12:45:05 PM 37.0508 -121.5689 140° Southeast 325 374 14,800 1,707 Climbing Oakland Center
Fri 12:46:06 PM 36.9906 -121.4856 132° Southeast 324 373 16,300 1,317 Climbing Oakland Center
Fri 12:47:08 PM 36.9236 -121.3997 134° Southeast 344 396 17,500 1,210 Climbing Oakland Center
Fri 12:48:10 PM 36.8519 -121.3178 138° Southeast 348 400 18,800 1,220 Climbing Oakland Center
Fri 12:49:11 PM 36.7711 -121.2333 140° Southeast 349 402 20,000 1,171 Climbing Oakland Center
Fri 12:50:13 PM 36.6983 -121.1478 137° Southeast 358 412 21,200 1,161 Climbing Oakland Center
Fri 12:51:15 PM 36.6244 -121.0644 138° Southeast 359 413 22,400 1,220 Climbing Oakland Center
Fri 12:52:16 PM 36.5353 -120.9631 138° Southeast 362 417 23,700 1,073 Climbing Oakland Center
Fri 12:53:18 PM 36.4592 -120.8786 138° Southeast 366 421 24,600 871 Climbing Oakland Center
Fri 12:54:20 PM 36.3825 -120.7903 137° Southeast 373 429 25,500 878 Climbing Oakland Center
Fri 12:55:21 PM 36.3053 -120.7000 137° Southeast 380 437 26,400 732 Climbing Oakland Center
Fri 12:56:23 PM 36.2242 -120.6147 140° Southeast 382 440 27,000 629 Climbing Oakland Center
Fri 12:57:25 PM 36.1431 -120.5242 138° Southeast 390 449 27,700 780 Climbing Oakland Center
Fri 12:58:26 PM 36.0614 -120.4331 138° Southeast 394 453 28,600 634 Climbing Oakland Center
Fri 12:59:28 PM 35.9800 -120.3431 138° Southeast 392 451 29,000 194 Climbing Oakland Center
Fri 01:00:30 PM 35.8778 -120.2314 138° Southeast 404 465 29,000  Level Oakland Center
Fri 01:01:31 PM 35.7906 -120.1347 138° Southeast 416 479 29,000  Level Oakland Center
Fri 01:02:33 PM 35.7033 -120.0383 138° Southeast 418 481 29,000  Level Oakland Center
Fri 01:03:34 PM 35.6117 -119.9453 140° Southeast 422 486 29,000  Level Oakland Center
Fri 01:04:04 PM 35.5722 -119.9136 147° Southeast 423 487 29,000  Level Los Angeles Center
Fri 01:05:06 PM 35.4747 -119.8283 145° Southeast 425 489 29,000  Level Los Angeles Center
Fri 01:06:08 PM 35.3581 -119.7278 145° Southeast 425 489 29,000  Level Los Angeles Center
Fri 01:07:10 PM 35.2603 -119.6442 145° Southeast 426 490 29,000  Level Los Angeles Center
Fri 01:08:12 PM 35.1819 -119.5767 145° Southeast 427 491 29,000  Level Los Angeles Center
Fri 01:09:15 PM 35.0647 -119.4778 145° Southeast 426 490 29,000  Level Los Angeles Center
Fri 01:10:17 PM 34.9686 -119.3936 144° Southeast 425 489 29,000  Level Los Angeles Center
Fri 01:11:19 PM 34.8694 -119.3114 146° Southeast 428 493 29,000  Level Los Angeles Center
Fri 01:12:21 PM 34.7711 -119.2292 146° Southeast 427 491 29,000  Level Los Angeles Center
Fri 01:13:24 PM 34.6553 -119.1297 145° Southeast 426 490 29,000  Level Los Angeles Center
Fri 01:14:25 PM 34.5661 -119.0569 146° Southeast 425 489 29,000  Level Los Angeles Center
Fri 01:15:27 PM 34.4689 -118.9747 145° Southeast 427 491 29,000  Level Los Angeles Center
Fri 01:16:29 PM 34.3528 -118.8778 145° Southeast 424 488 29,000  Level Los Angeles Center
Fri 01:17:32 PM 34.2636 -118.7836 139° Southeast 425 489 29,000  Level Los Angeles Center
Fri 01:18:34 PM 34.1747 -118.6878 138° Southeast 428 493 29,000 -48 Level Los Angeles Center
Fri 01:19:36 PM 34.0850 -118.5931 139° Southeast 428 493 28,900 -435 Descending Los Angeles Center
Fri 01:20:38 PM 33.9964 -118.4989 139° Southeast 425 489 28,100 -968 Descending Los Angeles Center
Fri 01:21:40 PM 33.9128 -118.4006 136° Southeast 421 484 26,900 -1,258 Descending Los Angeles Center
Fri 01:22:42 PM 33.8219 -118.2639 129° Southeast 422 486 25,500 -1,258 Descending Los Angeles Center
Fri 01:23:44 PM 33.7453 -118.1517 129° Southeast 422 486 24,300 -726 Descending Los Angeles Center
Fri 01:24:46 PM 33.6725 -118.0453 129° Southeast 415 478 24,000 -145 Descending Los Angeles Center
Fri 01:25:48 PM 33.6181 -117.9658 129° Southeast 396 456 24,000  Level Los Angeles Center
Fri 01:26:51 PM 33.5342 -117.8436 129° Southeast 394 453 24,000  Level Los Angeles Center
Fri 01:27:53 PM 33.4636 -117.7403 129° Southeast 399 459 24,000 -97 Level Los Angeles Center
Fri 01:28:55 PM 33.3917 -117.6369 130° Southeast 403 464 23,800 -1,113 Descending Los Angeles Center
Fri 01:29:57 PM 33.3208 -117.5342 129° Southeast 400 460 21,700 -1,985 Descending Los Angeles Center
Fri 01:31:11 PM 33.2144 -117.4453 145° Southeast 383 441 19,300 -2,321 Descending Los Angeles Center
Fri 01:32:14 PM 33.1014 -117.3883 157° South 368 423 16,400 -2,304 Descending Los Angeles Center
Fri 01:33:16 PM 33.0131 -117.3428 157° South 352 405 14,500 -1,918 Descending Los Angeles Center
Fri 01:34:16 PM 32.9333 -117.3000 156° South 310 357 12,500 -1,632 Descending Southern California TRACON
Fri 01:35:10 PM 32.8500 -117.3000 180° South 287 330 11,400 -1,350 Descending Southern California TRACON
Fri 01:36:16 PM 32.7667 -117.3000 180° South 276 318 9,800 -1,091 Descending Southern California TRACON
Fri 01:37:11 PM 32.7000 -117.3000 180° South 259 298 9,200 -1,304 Descending Southern California TRACON
Fri 01:38:11 PM 32.6333 -117.3333 203° Southwest 263 303 7,300 -1,983 Descending Southern California TRACON
Fri 01:39:12 PM 32.6000 -117.2667 121° Southeast 272 313 5,200 -1,636 Descending Southern California TRACON
Fri 01:40:12 PM 32.6000 -117.1833 90° East 243 280 4,000 -595 Descending Southern California TRACON
Fri 01:41:13 PM 32.6000 -117.1167 90° East 198 228 4,000 -129 Level Southern California TRACON
Fri 01:41:45 PM 32.5989 -117.0922 93° East 204 235 3,800 -894 Descending Los Angeles Center
Fri 01:42:47 PM 32.6081 -117.0311 80° East 191 220 2,600 -871 Descending Los Angeles Center
Fri 01:43:49 PM 32.6125 -116.9781 84° East 169 194 2,000 -336 Descending Los Angeles Center
Fri 01:44:52 PM 32.6064 -116.9311 99° East 153 176 1,900 -288 Descending Los Angeles Center
Fri 01:45:54 PM 32.5664 -116.9306 179° South 151 174 1,400 -629 Descending Los Angeles Center
Fri 01:46:56 PM 32.5789 -116.9761 288° West 147 169 600 -774 Descending Los Angeles Center

Login

Don't have an account? Register now (free) for customized features, flight alerts, and more!